createdAt,value
2023-05-17T00:00:55.869Z,18.83
2023-05-17T00:03:22.583Z,18.60
2023-05-17T00:05:49.433Z,19.33
2023-05-17T00:08:16.198Z,19.63
2023-05-17T00:10:43.287Z,19.45
2023-05-17T00:13:10.621Z,19.25
2023-05-17T00:15:37.317Z,18.60
2023-05-17T00:18:04.144Z,18.98
2023-05-17T00:20:30.978Z,18.60
2023-05-17T00:22:57.654Z,18.17
2023-05-17T00:25:24.356Z,17.88
2023-05-17T00:27:51.823Z,17.70
2023-05-17T00:30:19.054Z,18.17
2023-05-17T00:32:46.857Z,19.15
2023-05-17T00:35:14.034Z,17.95
2023-05-17T00:37:41.272Z,18.60
2023-05-17T00:40:09.077Z,19.13
2023-05-17T00:42:35.833Z,19.33
2023-05-17T00:45:02.870Z,19.20
2023-05-17T00:47:29.744Z,18.55
2023-05-17T00:49:56.640Z,18.95
2023-05-17T00:52:23.376Z,19.67
2023-05-17T00:54:51.333Z,19.13
2023-05-17T00:57:18.324Z,19.25
2023-05-17T00:59:45.730Z,19.08
2023-05-17T01:02:12.562Z,18.33
2023-05-17T01:04:41.460Z,17.75
2023-05-17T01:07:09.670Z,18.05
2023-05-17T01:09:36.860Z,18.20
2023-05-17T01:12:24.767Z,18.90
2023-05-17T01:15:06.636Z,18.75
2023-05-17T01:17:33.488Z,18.92
2023-05-17T01:20:06.486Z,20.08
2023-05-17T01:23:20.080Z,19.10
2023-05-17T01:26:15.400Z,20.10
2023-05-17T01:28:46.589Z,19.10
2023-05-17T01:31:14.032Z,19.58
2023-05-17T01:33:41.000Z,18.67
2023-05-17T01:36:08.413Z,19.23
2023-05-17T01:38:35.763Z,18.08
2023-05-17T01:41:13.395Z,17.25
2023-05-17T01:43:59.960Z,16.80
2023-05-17T01:46:32.103Z,18.35
2023-05-17T01:49:10.874Z,18.55
2023-05-17T01:51:47.362Z,17.80
2023-05-17T01:54:20.215Z,17.25
2023-05-17T01:56:52.005Z,17.52
2023-05-17T01:59:22.905Z,16.73
2023-05-17T02:01:51.137Z,17.15
2023-05-17T02:04:18.822Z,17.15
2023-05-17T02:06:46.016Z,16.80
2023-05-17T02:09:12.969Z,17.40
2023-05-17T02:11:39.865Z,17.70
2023-05-17T02:14:06.537Z,17.67
2023-05-17T02:16:33.173Z,17.73
2023-05-17T02:19:00.063Z,18.23
2023-05-17T02:21:26.716Z,18.33
2023-05-17T02:23:53.627Z,17.98
2023-05-17T02:26:20.838Z,18.15
2023-05-17T02:28:47.576Z,19.33
2023-05-17T02:31:16.754Z,19.55
2023-05-17T02:33:43.504Z,17.98
2023-05-17T02:36:10.870Z,19.70
2023-05-17T02:38:39.309Z,20.05
2023-05-17T02:41:05.981Z,21.55
2023-05-17T02:43:42.567Z,18.60
2023-05-17T02:46:09.289Z,18.90
2023-05-17T02:48:37.037Z,19.80
2023-05-17T02:51:03.775Z,19.58
2023-05-17T02:53:30.713Z,20.88
2023-05-17T02:56:00.230Z,19.17
2023-05-17T02:58:27.095Z,20.85
2023-05-17T03:00:53.846Z,20.52
2023-05-17T03:03:20.821Z,20.13
2023-05-17T03:05:47.726Z,21.50
2023-05-17T03:08:14.562Z,21.10
2023-05-17T03:10:42.028Z,21.98
2023-05-17T03:13:09.950Z,21.13
2023-05-17T03:15:39.364Z,21.42
2023-05-17T03:18:06.390Z,23.70
2023-05-17T03:20:34.035Z,21.55
2023-05-17T03:23:00.664Z,21.95
2023-05-17T03:25:27.536Z,21.48
2023-05-17T03:27:54.598Z,21.48
2023-05-17T03:30:21.929Z,22.10
2023-05-17T03:32:48.680Z,22.63
2023-05-17T03:35:15.751Z,22.02
2023-05-17T03:37:51.913Z,21.80
2023-05-17T03:40:18.896Z,21.13
2023-05-17T03:42:46.128Z,22.63
2023-05-17T03:45:13.068Z,24.15
2023-05-17T03:47:39.843Z,22.27
2023-05-17T03:50:07.643Z,22.30
2023-05-17T03:52:34.737Z,22.70
2023-05-17T03:55:01.418Z,23.95
2023-05-17T03:57:29.238Z,20.23
2023-05-17T03:59:56.188Z,21.83
2023-05-17T04:02:23.421Z,20.15
2023-05-17T04:04:50.972Z,22.23
2023-05-17T04:07:19.015Z,19.73
2023-05-17T04:09:46.563Z,22.33
2023-05-17T04:12:13.263Z,21.05
2023-05-17T04:14:40.210Z,22.17
2023-05-17T04:17:07.089Z,20.65
2023-05-17T04:19:35.071Z,20.13
2023-05-17T04:22:01.902Z,21.15
2023-05-17T04:24:30.389Z,21.98
2023-05-17T04:27:00.738Z,20.63
2023-05-17T04:29:28.695Z,19.77
2023-05-17T04:31:55.558Z,20.50
2023-05-17T04:34:23.855Z,21.40
2023-05-17T04:36:50.954Z,21.42
2023-05-17T04:39:18.077Z,21.17
2023-05-17T04:41:44.730Z,21.70
2023-05-17T04:44:13.704Z,19.60
2023-05-17T04:46:42.002Z,19.42
2023-05-17T04:49:08.697Z,19.92
2023-05-17T04:51:35.808Z,21.25
2023-05-17T04:54:06.694Z,21.17
2023-05-17T04:56:36.309Z,19.80
2023-05-17T04:59:05.402Z,21.85
2023-05-17T05:01:32.732Z,19.98
2023-05-17T05:04:00.000Z,19.52
2023-05-17T05:06:29.202Z,19.20
2023-05-17T05:08:56.121Z,19.33
2023-05-17T05:11:23.461Z,19.20
2023-05-17T05:13:50.541Z,19.20
2023-05-17T05:16:17.266Z,20.75
2023-05-17T05:18:45.033Z,20.40
2023-05-17T05:21:12.861Z,22.58
2023-05-17T05:23:39.673Z,20.83
2023-05-17T05:26:06.692Z,22.15
2023-05-17T05:28:33.549Z,20.48
2023-05-17T05:31:01.033Z,22.75
2023-05-17T05:33:34.745Z,21.67
2023-05-17T05:36:01.787Z,20.05
2023-05-17T05:38:28.500Z,20.98
2023-05-17T05:40:55.248Z,22.20
2023-05-17T05:43:21.997Z,21.38
2023-05-17T05:45:49.571Z,20.95
2023-05-17T05:48:16.649Z,20.33
2023-05-17T05:50:44.211Z,22.33
2023-05-17T05:53:18.696Z,21.25
2023-05-17T05:55:49.873Z,22.70
2023-05-17T05:58:17.080Z,22.05
2023-05-17T06:00:44.658Z,22.05
2023-05-17T06:03:11.352Z,23.35
2023-05-17T06:05:39.129Z,23.85
2023-05-17T06:08:06.631Z,25.92
2023-05-17T06:10:33.525Z,23.35
2023-05-17T06:13:00.346Z,23.80
2023-05-17T06:15:28.124Z,23.33
2023-05-17T06:17:54.849Z,23.45
2023-05-17T06:20:21.575Z,23.00
2023-05-17T06:22:48.208Z,23.65
2023-05-17T06:25:15.083Z,22.63
2023-05-17T06:27:41.790Z,25.80
2023-05-17T06:30:08.950Z,23.92
2023-05-17T06:32:35.664Z,24.40
2023-05-17T06:35:02.979Z,24.45
2023-05-17T06:37:31.037Z,24.42
2023-05-17T06:40:14.772Z,25.35
2023-05-17T06:45:10.536Z,25.60
2023-05-17T06:47:37.351Z,25.48
2023-05-17T06:50:04.304Z,26.65
2023-05-17T06:52:31.010Z,26.55
2023-05-17T06:54:57.637Z,25.02
2023-05-17T06:57:24.947Z,27.13
2023-05-17T06:59:52.155Z,26.92
2023-05-17T07:02:19.551Z,26.50
2023-05-17T07:04:46.722Z,26.27
2023-05-17T07:07:13.416Z,27.02
2023-05-17T07:09:40.172Z,27.10
2023-05-17T07:12:08.958Z,26.75
2023-05-17T07:14:35.942Z,27.05
2023-05-17T07:17:02.624Z,28.10
2023-05-17T07:19:29.611Z,26.20
2023-05-17T07:21:57.195Z,27.05
2023-05-17T07:24:23.906Z,26.65
2023-05-17T07:26:52.286Z,25.35
2023-05-17T07:29:19.383Z,25.52
2023-05-17T07:31:46.129Z,24.35
2023-05-17T07:34:13.641Z,25.55
2023-05-17T07:36:40.451Z,26.23
2023-05-17T07:39:08.688Z,26.02
2023-05-17T07:41:36.008Z,26.05
2023-05-17T07:44:02.658Z,25.20
2023-05-17T07:46:29.348Z,24.67
2023-05-17T07:48:58.309Z,24.95
2023-05-17T07:51:26.119Z,25.75
2023-05-17T07:53:52.766Z,25.95
2023-05-17T07:56:19.536Z,25.92
2023-05-17T07:58:46.204Z,25.80
2023-05-17T08:01:13.070Z,25.13
2023-05-17T08:03:47.658Z,27.40
2023-05-17T08:06:18.595Z,24.85
2023-05-17T08:08:45.615Z,25.58
2023-05-17T08:11:12.944Z,26.23
2023-05-17T08:13:39.595Z,25.85
2023-05-17T08:16:14.214Z,25.33
2023-05-17T08:21:09.647Z,26.77
2023-05-17T08:23:36.632Z,25.63
2023-05-17T08:26:03.335Z,25.75
2023-05-17T08:28:29.982Z,25.35
2023-05-17T08:30:57.880Z,25.60
2023-05-17T08:33:26.037Z,24.98
2023-05-17T08:35:55.112Z,25.60
2023-05-17T08:38:22.224Z,25.45
2023-05-17T08:40:55.930Z,25.75
2023-05-17T08:43:25.241Z,24.88
2023-05-17T08:45:57.331Z,26.70
2023-05-17T08:48:24.188Z,27.02
2023-05-17T08:50:54.083Z,27.33
2023-05-17T08:53:20.804Z,27.13
2023-05-17T08:55:50.542Z,28.17
2023-05-17T08:58:25.626Z,24.98
2023-05-17T09:00:56.152Z,26.30
2023-05-17T09:03:24.430Z,27.25
2023-05-17T09:05:54.316Z,26.70
2023-05-17T09:08:24.237Z,29.90
2023-05-17T09:10:51.237Z,27.27
2023-05-17T09:13:18.012Z,26.80
2023-05-17T09:15:48.159Z,27.05
2023-05-17T09:18:17.732Z,26.30
2023-05-17T09:20:51.582Z,27.15
2023-05-17T09:23:20.963Z,27.70
2023-05-17T09:25:50.832Z,25.48
2023-05-17T09:28:20.456Z,26.13
2023-05-17T09:30:49.148Z,28.70
2023-05-17T09:33:17.787Z,30.10
2023-05-17T09:35:45.727Z,30.42
2023-05-17T09:38:13.633Z,28.88
2023-05-17T09:40:42.193Z,28.05
2023-05-17T09:43:11.286Z,29.38
2023-05-17T09:45:38.563Z,35.10
2023-05-17T09:48:15.977Z,28.75
2023-05-17T09:50:50.890Z,28.20
2023-05-17T09:53:32.369Z,27.20
2023-05-17T09:56:05.607Z,27.75
2023-05-17T09:58:33.393Z,28.98
2023-05-17T10:01:03.691Z,29.60
2023-05-17T10:03:41.029Z,29.13
2023-05-17T10:06:11.528Z,29.27
2023-05-17T10:08:46.220Z,29.40
2023-05-17T10:11:13.175Z,32.88
2023-05-17T10:14:11.348Z,27.48
2023-05-17T10:16:39.235Z,28.05
2023-05-17T10:19:06.687Z,34.75
2023-05-17T10:21:34.293Z,31.88
2023-05-17T10:24:02.958Z,28.23
2023-05-17T10:26:30.404Z,27.17
2023-05-17T10:29:02.045Z,28.48
2023-05-17T10:31:33.541Z,28.98
2023-05-17T10:34:08.022Z,33.88
2023-05-17T10:36:34.828Z,35.20
2023-05-17T10:39:02.730Z,30.20
2023-05-17T10:41:33.614Z,32.50
2023-05-17T10:44:03.361Z,31.35
2023-05-17T10:46:30.839Z,36.30
2023-05-17T10:49:00.216Z,37.67
2023-05-17T10:51:31.397Z,30.60
2023-05-17T10:54:12.184Z,31.80
2023-05-17T10:56:47.651Z,30.90
2023-05-17T10:59:22.683Z,36.10
2023-05-17T11:02:06.597Z,34.50
2023-05-17T11:04:41.872Z,31.20
2023-05-17T11:07:17.825Z,35.63
2023-05-17T11:09:49.078Z,29.95
2023-05-17T11:12:16.817Z,29.58
2023-05-17T11:14:46.173Z,30.42
2023-05-17T11:17:28.291Z,32.22
2023-05-17T11:19:55.222Z,30.17
2023-05-17T11:22:25.848Z,30.52
2023-05-17T11:24:53.902Z,37.17
2023-05-17T11:27:27.146Z,35.53
2023-05-17T11:32:31.202Z,34.70
2023-05-17T11:35:00.672Z,34.45
2023-05-17T11:37:28.937Z,34.05
2023-05-17T11:40:07.912Z,36.40
2023-05-17T11:42:39.314Z,31.40
2023-05-17T11:45:07.103Z,32.90
2023-05-17T11:47:38.424Z,30.00
2023-05-17T11:50:06.523Z,30.30
2023-05-17T11:52:34.117Z,33.50
2023-05-17T11:55:01.328Z,32.97
2023-05-17T11:57:32.194Z,32.38
2023-05-17T12:00:04.250Z,36.25
2023-05-17T12:02:39.258Z,35.00
2023-05-17T12:05:09.073Z,32.45
2023-05-17T12:07:37.228Z,33.67
2023-05-17T12:10:05.778Z,33.08
2023-05-17T12:12:32.495Z,33.08
2023-05-17T12:14:59.709Z,34.42
2023-05-17T12:17:35.564Z,31.38
2023-05-17T12:20:10.175Z,34.40
2023-05-17T12:22:57.419Z,36.47
2023-05-17T12:25:29.474Z,35.50
2023-05-17T12:28:22.117Z,31.17
2023-05-17T12:30:53.689Z,33.97
2023-05-17T12:33:21.109Z,33.42
2023-05-17T12:35:47.943Z,36.83
2023-05-17T12:38:14.707Z,36.72
2023-05-17T12:40:43.333Z,32.28
2023-05-17T12:43:10.342Z,33.58
2023-05-17T12:45:37.015Z,35.20
2023-05-17T12:48:03.906Z,35.15
2023-05-17T12:50:31.278Z,36.65
2023-05-17T12:52:58.533Z,34.47
2023-05-17T12:55:25.309Z,34.33
2023-05-17T12:57:53.734Z,30.27
2023-05-17T13:00:21.492Z,30.17
2023-05-17T13:02:48.375Z,30.67
2023-05-17T13:05:16.067Z,32.67
2023-05-17T13:07:42.716Z,36.97
2023-05-17T13:10:23.570Z,38.30
2023-05-17T13:12:57.890Z,33.05
2023-05-17T13:15:33.969Z,36.25
2023-05-17T13:18:12.495Z,35.53
2023-05-17T13:20:39.362Z,36.28
2023-05-17T13:23:06.509Z,35.97
2023-05-17T13:25:33.140Z,31.08
2023-05-17T13:27:59.795Z,37.00
2023-05-17T13:30:26.882Z,34.92
2023-05-17T13:32:54.613Z,34.65
2023-05-17T13:35:21.461Z,35.13
2023-05-17T13:37:48.312Z,33.58
2023-05-17T13:40:15.357Z,33.78
2023-05-17T13:42:42.024Z,34.88
2023-05-17T13:45:09.237Z,35.58
2023-05-17T13:47:36.115Z,34.05
2023-05-17T13:50:03.952Z,37.53
2023-05-17T13:52:31.285Z,35.20
2023-05-17T13:54:57.920Z,36.83
2023-05-17T13:57:24.601Z,33.00
2023-05-17T13:59:51.262Z,32.40
2023-05-17T14:02:18.348Z,35.60
2023-05-17T14:04:45.007Z,32.75
2023-05-17T14:07:11.897Z,32.55
2023-05-17T14:09:39.651Z,32.35
2023-05-17T14:12:06.624Z,32.03
2023-05-17T14:14:33.498Z,34.60
2023-05-17T14:17:01.738Z,36.75
2023-05-17T14:19:28.576Z,31.42
2023-05-17T14:21:55.441Z,32.17
2023-05-17T14:24:22.274Z,31.10
2023-05-17T14:26:48.956Z,34.08
2023-05-17T14:29:15.708Z,33.72
2023-05-17T14:31:42.448Z,35.78
2023-05-17T14:34:09.546Z,34.20
2023-05-17T14:36:38.098Z,36.22
2023-05-17T14:39:05.381Z,37.22
2023-05-17T14:41:32.114Z,34.40
2023-05-17T14:43:58.832Z,34.33
2023-05-17T14:46:25.507Z,31.05
2023-05-17T14:48:52.314Z,34.83
2023-05-17T14:51:19.817Z,29.65
2023-05-17T14:53:46.546Z,33.28
2023-05-17T14:56:15.054Z,35.03
2023-05-17T14:58:42.520Z,33.60
2023-05-17T15:01:09.398Z,33.38
2023-05-17T15:03:37.473Z,34.40
2023-05-17T15:06:08.200Z,35.08
2023-05-17T15:08:38.973Z,34.22
2023-05-17T15:11:05.693Z,35.45
2023-05-17T15:13:32.317Z,33.38
2023-05-17T15:15:59.325Z,35.20
2023-05-17T15:18:26.166Z,34.28
2023-05-17T15:20:58.255Z,34.42
2023-05-17T15:23:25.092Z,30.73
2023-05-17T15:25:51.731Z,32.60
2023-05-17T15:28:20.745Z,34.83
2023-05-17T15:30:47.698Z,35.13
2023-05-17T15:33:14.428Z,35.78
2023-05-17T15:35:41.641Z,34.72
2023-05-17T15:38:08.489Z,34.75
2023-05-17T15:40:35.140Z,34.13
2023-05-17T15:43:02.059Z,34.53
2023-05-17T15:45:29.237Z,35.08
2023-05-17T15:47:56.979Z,33.30
2023-05-17T15:50:23.923Z,35.00
2023-05-17T15:52:50.676Z,34.30
2023-05-17T15:55:17.498Z,32.92
2023-05-17T15:57:44.277Z,33.38
2023-05-17T16:00:11.682Z,33.35
2023-05-17T16:02:38.685Z,33.45
2023-05-17T16:05:07.148Z,34.70
2023-05-17T16:07:34.251Z,33.97
2023-05-17T16:10:00.904Z,33.33
2023-05-17T16:12:27.553Z,34.15
2023-05-17T16:14:54.155Z,36.05
2023-05-17T16:17:21.085Z,35.90
2023-05-17T16:19:47.784Z,35.17
2023-05-17T16:22:14.837Z,31.75
2023-05-17T16:24:41.894Z,33.05
2023-05-17T16:27:08.549Z,32.03
2023-05-17T16:29:39.589Z,31.20
2023-05-17T16:32:07.760Z,32.90
2023-05-17T16:34:34.441Z,33.08
2023-05-17T16:37:01.136Z,32.60
2023-05-17T16:39:28.645Z,32.42
2023-05-17T16:41:55.718Z,31.65
2023-05-17T16:44:22.359Z,32.67
2023-05-17T16:46:49.140Z,32.85
2023-05-17T16:49:15.881Z,33.50
2023-05-17T16:51:42.568Z,32.25
2023-05-17T16:54:09.401Z,33.03
2023-05-17T16:56:36.497Z,33.25
2023-05-17T16:59:03.206Z,31.40
2023-05-17T17:01:29.879Z,31.85
2023-05-17T17:03:56.600Z,30.92
2023-05-17T17:06:23.404Z,32.08
2023-05-17T17:08:50.143Z,31.95
2023-05-17T17:11:21.677Z,35.08
2023-05-17T17:13:48.861Z,32.60
2023-05-17T17:16:15.635Z,35.30
2023-05-17T17:18:42.952Z,34.83
2023-05-17T17:21:09.715Z,32.63
2023-05-17T17:23:36.555Z,31.95
2023-05-17T17:26:03.230Z,32.15
2023-05-17T17:28:29.912Z,32.33
2023-05-17T17:30:56.653Z,33.95
2023-05-17T17:33:23.307Z,33.13
2023-05-17T17:35:49.967Z,33.85
2023-05-17T17:38:16.801Z,33.33
2023-05-17T17:40:43.580Z,33.88
2023-05-17T17:43:10.273Z,32.72
2023-05-17T17:45:37.137Z,34.30
2023-05-17T17:48:04.053Z,33.63
2023-05-17T17:50:31.332Z,34.17
2023-05-17T17:52:58.598Z,35.33
2023-05-17T17:55:25.546Z,35.83
2023-05-17T17:57:52.180Z,37.60
2023-05-17T18:00:19.357Z,40.58
2023-05-17T18:02:46.193Z,38.83
2023-05-17T18:05:12.903Z,38.45
2023-05-17T18:07:39.947Z,39.42
2023-05-17T18:10:07.183Z,38.17
2023-05-17T18:12:34.087Z,35.97
2023-05-17T18:15:00.785Z,35.88
2023-05-17T18:17:28.334Z,33.03
2023-05-17T18:19:55.439Z,31.85
2023-05-17T18:22:22.140Z,29.83
2023-05-17T18:24:49.357Z,30.88
2023-05-17T18:27:16.734Z,31.05
2023-05-17T18:29:43.488Z,31.27
2023-05-17T18:32:10.303Z,31.30
2023-05-17T18:34:37.370Z,30.05
2023-05-17T18:37:04.855Z,30.38
2023-05-17T18:39:31.473Z,31.30
2023-05-17T18:41:58.135Z,32.38
2023-05-17T18:44:25.270Z,31.45
2023-05-17T18:46:53.622Z,30.65
2023-05-17T18:49:21.356Z,31.33
2023-05-17T18:51:48.333Z,31.75
2023-05-17T18:54:14.995Z,31.05
2023-05-17T18:56:41.658Z,32.42
2023-05-17T18:59:08.372Z,32.05
2023-05-17T19:01:35.318Z,31.73
2023-05-17T19:04:02.130Z,26.40
2023-05-17T19:06:28.966Z,26.55
2023-05-17T19:08:57.956Z,26.77
2023-05-17T19:11:24.943Z,25.02
2023-05-17T19:13:51.583Z,26.52
2023-05-17T19:16:18.317Z,26.15
2023-05-17T19:18:45.303Z,28.23
2023-05-17T19:21:12.484Z,26.75
2023-05-17T19:23:39.251Z,26.60
2023-05-17T19:26:05.906Z,26.98
2023-05-17T19:28:34.799Z,26.52
2023-05-17T19:31:03.633Z,25.80
2023-05-17T19:33:31.833Z,30.20
2023-05-17T19:35:58.585Z,25.73
2023-05-17T19:38:25.281Z,25.48
2023-05-17T19:40:51.946Z,24.77
2023-05-17T19:43:18.591Z,24.15
2023-05-17T19:45:45.410Z,24.05
2023-05-17T19:48:12.601Z,24.33
2023-05-17T19:50:39.282Z,23.13
2023-05-17T19:53:06.276Z,24.10
2023-05-17T19:55:34.198Z,25.35
2023-05-17T19:58:01.111Z,23.55
2023-05-17T20:00:28.047Z,22.67
2023-05-17T20:02:54.902Z,23.73
2023-05-17T20:05:22.138Z,22.70
2023-05-17T20:07:48.794Z,23.13
2023-05-17T20:10:15.590Z,23.17
2023-05-17T20:12:42.260Z,24.33
2023-05-17T20:15:09.598Z,24.02
2023-05-17T20:17:36.564Z,22.85
2023-05-17T20:20:05.089Z,22.77
2023-05-17T20:22:31.872Z,23.15
2023-05-17T20:24:58.641Z,23.63
2023-05-17T20:27:26.476Z,23.08
2023-05-17T20:29:53.284Z,23.48
2023-05-17T20:32:19.940Z,23.45
2023-05-17T20:34:46.589Z,23.23
2023-05-17T20:37:13.232Z,24.50
2023-05-17T20:39:40.104Z,24.45
2023-05-17T20:42:07.623Z,27.15
2023-05-17T20:44:34.356Z,24.98
2023-05-17T20:47:01.181Z,25.30
2023-05-17T20:49:28.033Z,25.05
2023-05-17T20:52:04.390Z,24.20
2023-05-17T20:54:31.229Z,23.75
2023-05-17T20:56:58.297Z,24.83
2023-05-17T20:59:26.337Z,24.65
2023-05-17T21:01:53.184Z,25.33
2023-05-17T21:04:19.930Z,23.52
2023-05-17T21:06:46.883Z,24.38
2023-05-17T21:09:13.720Z,24.92
2023-05-17T21:11:41.209Z,23.83
2023-05-17T21:14:08.052Z,24.63
2023-05-17T21:16:35.276Z,23.70
2023-05-17T21:19:02.272Z,24.58
2023-05-17T21:22:00.942Z,24.83
2023-05-17T21:24:27.644Z,24.08
2023-05-17T21:26:54.729Z,24.00
2023-05-17T21:29:21.417Z,24.38
2023-05-17T21:31:48.212Z,23.98
2023-05-17T21:34:14.966Z,23.58
2023-05-17T21:36:41.632Z,24.50
2023-05-17T21:39:08.339Z,22.55
2023-05-17T21:41:34.989Z,23.60
2023-05-17T21:44:01.683Z,24.00
2023-05-17T21:46:28.512Z,22.70
2023-05-17T21:48:55.206Z,23.27
2023-05-17T21:51:22.207Z,24.08
2023-05-17T21:53:50.335Z,23.98
2023-05-17T21:56:17.054Z,23.90
2023-05-17T21:58:44.104Z,23.33
2023-05-17T22:01:11.406Z,22.45
2023-05-17T22:03:38.247Z,29.35
2023-05-17T22:06:05.642Z,28.55
2023-05-17T22:08:32.833Z,25.30
2023-05-17T22:10:59.502Z,23.85
2023-05-17T22:13:26.609Z,26.70
2023-05-17T22:15:56.842Z,26.08
2023-05-17T22:18:23.696Z,24.30
2023-05-17T22:20:53.079Z,24.98
2023-05-17T22:23:20.502Z,25.13
2023-05-17T22:25:47.167Z,24.25
2023-05-17T22:28:13.830Z,24.40
2023-05-17T22:30:40.629Z,24.17
2023-05-17T22:33:07.466Z,23.75
2023-05-17T22:35:34.107Z,25.00
2023-05-17T22:38:00.799Z,25.42
2023-05-17T22:40:27.524Z,24.02
2023-05-17T22:42:54.401Z,24.65
2023-05-17T22:45:21.231Z,24.27
2023-05-17T22:47:47.928Z,24.50
2023-05-17T22:50:15.430Z,23.70
2023-05-17T22:52:43.045Z,24.65
2023-05-17T22:55:10.792Z,25.42
2023-05-17T22:57:38.196Z,24.23
2023-05-17T23:00:09.270Z,25.10
2023-05-17T23:02:36.186Z,24.98
2023-05-17T23:05:03.161Z,25.15
2023-05-17T23:07:36.759Z,25.08
2023-05-17T23:10:08.332Z,24.60
2023-05-17T23:12:36.424Z,25.20
2023-05-17T23:15:06.803Z,24.80
2023-05-17T23:17:33.639Z,26.05
2023-05-17T23:20:09.773Z,26.08
2023-05-17T23:22:37.763Z,24.83
2023-05-17T23:25:05.789Z,25.20
2023-05-17T23:27:33.407Z,25.02
2023-05-17T23:30:00.833Z,25.13
2023-05-17T23:32:28.514Z,26.58
2023-05-17T23:35:03.107Z,26.63
2023-05-17T23:37:31.476Z,26.17
2023-05-17T23:39:58.478Z,26.63
2023-05-17T23:42:31.925Z,27.05
2023-05-17T23:45:00.426Z,25.80
2023-05-17T23:47:33.263Z,24.88
2023-05-17T23:50:00.552Z,25.85
2023-05-17T23:52:29.720Z,25.15
2023-05-17T23:54:58.792Z,25.65
2023-05-17T23:57:25.527Z,28.10
2023-05-17T23:59:52.177Z,23.80
